createdAt,value
2018-09-28T00:00:27.447Z,5.62
2018-09-28T00:00:58.540Z,5.59
2018-09-28T00:01:29.662Z,5.59
2018-09-28T00:02:00.778Z,5.58
2018-09-28T00:02:31.892Z,5.58
2018-09-28T00:03:03.023Z,5.56
2018-09-28T00:03:34.185Z,5.52
2018-09-28T00:04:05.286Z,5.51
2018-09-28T00:04:36.405Z,5.52
2018-09-28T00:05:07.507Z,5.52
2018-09-28T00:05:38.606Z,5.51
2018-09-28T00:06:09.701Z,5.51
2018-09-28T00:06:40.812Z,5.49
2018-09-28T00:07:11.926Z,5.49
2018-09-28T00:07:43.034Z,5.51
2018-09-28T00:08:14.286Z,5.49
2018-09-28T00:08:45.420Z,5.47
2018-09-28T00:09:16.521Z,5.45
2018-09-28T00:09:47.646Z,5.44
2018-09-28T00:10:18.765Z,5.41
2018-09-28T00:10:49.865Z,5.38
2018-09-28T00:11:20.983Z,5.38
2018-09-28T00:11:52.114Z,5.38
2018-09-28T00:12:23.271Z,5.38
2018-09-28T00:12:54.422Z,5.38
2018-09-28T00:13:25.539Z,5.36
2018-09-28T00:13:56.689Z,5.34
2018-09-28T00:14:27.869Z,5.34
2018-09-28T00:14:58.978Z,5.33
2018-09-28T00:15:30.137Z,5.32
2018-09-28T00:16:01.263Z,5.32
2018-09-28T00:16:32.430Z,5.30
2018-09-28T00:17:03.543Z,5.30
2018-09-28T00:17:34.649Z,5.32
2018-09-28T00:18:05.764Z,5.30
2018-09-28T00:18:36.874Z,5.27
2018-09-28T00:19:07.998Z,5.26
2018-09-28T00:19:39.162Z,5.29
2018-09-28T00:20:10.315Z,5.30
2018-09-28T00:20:41.446Z,5.29
2018-09-28T00:21:12.563Z,5.27
2018-09-28T00:21:43.690Z,5.26
2018-09-28T00:22:14.814Z,5.24
2018-09-28T00:22:45.955Z,5.25
2018-09-28T00:23:17.105Z,5.24
2018-09-28T00:23:48.259Z,5.26
2018-09-28T00:24:19.407Z,5.26
2018-09-28T00:24:50.529Z,5.27
2018-09-28T00:25:21.702Z,5.29
2018-09-28T00:25:52.819Z,5.30
2018-09-28T00:26:23.945Z,5.30
2018-09-28T00:26:55.109Z,5.30
2018-09-28T00:27:26.198Z,5.32
2018-09-28T00:27:57.353Z,5.33
2018-09-28T00:28:28.460Z,5.32
2018-09-28T00:28:59.630Z,5.32
2018-09-28T00:29:30.775Z,5.31
2018-09-28T00:30:01.891Z,5.28
2018-09-28T00:30:32.997Z,5.28
2018-09-28T00:31:04.143Z,5.25
2018-09-28T00:31:35.247Z,5.27
2018-09-28T00:32:06.352Z,5.28
2018-09-28T00:32:37.501Z,5.27
2018-09-28T00:33:08.606Z,5.27
2018-09-28T00:33:39.739Z,5.26
2018-09-28T00:34:10.853Z,5.25
2018-09-28T00:34:41.983Z,5.23
2018-09-28T00:35:13.101Z,5.24
2018-09-28T00:35:44.250Z,5.23
2018-09-28T00:36:15.394Z,5.23
2018-09-28T00:36:46.508Z,5.20
2018-09-28T00:37:17.618Z,5.17
2018-09-28T00:37:48.718Z,5.14
2018-09-28T00:38:19.822Z,5.10
2018-09-28T00:38:50.960Z,5.09
2018-09-28T00:39:22.140Z,5.08
2018-09-28T00:39:53.243Z,5.08
2018-09-28T00:40:24.350Z,5.07
2018-09-28T00:40:55.460Z,5.07
2018-09-28T00:41:26.618Z,5.09
2018-09-28T00:41:57.739Z,5.09
2018-09-28T00:42:28.851Z,5.08
2018-09-28T00:42:59.965Z,5.07
2018-09-28T00:43:31.073Z,5.07
2018-09-28T00:44:02.174Z,5.05
2018-09-28T00:44:33.287Z,5.05
2018-09-28T00:45:04.398Z,5.06
2018-09-28T00:45:35.509Z,5.05
2018-09-28T00:46:06.643Z,5.06
2018-09-28T00:46:37.810Z,5.05
2018-09-28T00:47:08.934Z,5.05
2018-09-28T00:47:40.069Z,5.06
2018-09-28T00:48:11.186Z,5.08
2018-09-28T00:48:42.304Z,5.07
2018-09-28T00:49:13.413Z,5.06
2018-09-28T00:49:44.535Z,5.07
2018-09-28T00:50:15.643Z,5.07
2018-09-28T00:50:46.775Z,5.06
2018-09-28T00:51:17.886Z,5.06
2018-09-28T00:51:49.062Z,5.05
2018-09-28T00:52:20.211Z,5.02
2018-09-28T00:52:51.328Z,5.02
2018-09-28T00:53:22.437Z,5.00
2018-09-28T00:53:53.609Z,4.98
2018-09-28T00:54:24.765Z,4.99
2018-09-28T00:54:55.886Z,4.98
2018-09-28T00:55:27.071Z,5.01
2018-09-28T00:55:58.185Z,5.00
2018-09-28T00:56:29.323Z,4.99
2018-09-28T00:57:00.485Z,4.96
2018-09-28T00:57:31.667Z,4.96
2018-09-28T00:58:02.817Z,4.97
2018-09-28T00:58:33.973Z,4.95
2018-09-28T00:59:05.102Z,4.95
2018-09-28T00:59:36.197Z,4.96
2018-09-28T01:00:07.310Z,4.96
2018-09-28T01:00:38.455Z,4.95
2018-09-28T01:01:09.572Z,4.95
2018-09-28T01:01:40.714Z,4.96
2018-09-28T01:02:11.875Z,4.98
2018-09-28T01:02:42.985Z,4.99
2018-09-28T01:03:14.116Z,4.98
2018-09-28T01:03:45.257Z,4.98
2018-09-28T01:04:16.423Z,4.95
2018-09-28T01:04:47.562Z,4.94
2018-09-28T01:05:18.684Z,4.95
2018-09-28T01:05:49.793Z,4.93
2018-09-28T01:06:20.956Z,4.93
2018-09-28T01:06:52.061Z,4.91
2018-09-28T01:07:23.209Z,4.92
2018-09-28T01:07:54.316Z,4.91
2018-09-28T01:08:25.481Z,4.93
2018-09-28T01:08:56.627Z,4.94
2018-09-28T01:09:27.774Z,4.94
2018-09-28T01:09:58.890Z,4.93
2018-09-28T01:10:29.997Z,4.93
2018-09-28T01:11:01.110Z,4.92
2018-09-28T01:11:32.221Z,4.92
2018-09-28T01:12:03.327Z,4.91
2018-09-28T01:12:34.470Z,4.90
2018-09-28T01:13:05.582Z,4.89
2018-09-28T01:13:36.723Z,4.90
2018-09-28T01:14:07.870Z,4.89
2018-09-28T01:14:39.002Z,4.92
2018-09-28T01:15:10.109Z,4.94
2018-09-28T01:15:41.231Z,4.91
2018-09-28T01:16:12.357Z,4.90
2018-09-28T01:16:43.484Z,4.90
2018-09-28T01:17:14.591Z,4.88
2018-09-28T01:17:45.707Z,4.88
2018-09-28T01:18:16.812Z,4.89
2018-09-28T01:18:47.917Z,4.90
2018-09-28T01:19:19.059Z,4.94
2018-09-28T01:19:50.190Z,4.93
2018-09-28T01:20:21.305Z,4.92
2018-09-28T01:20:52.414Z,4.92
2018-09-28T01:21:23.526Z,4.94
2018-09-28T01:21:54.638Z,4.96
2018-09-28T01:22:25.741Z,4.97
2018-09-28T01:22:56.887Z,4.97
2018-09-28T01:23:27.987Z,4.99
2018-09-28T01:23:59.091Z,4.98
2018-09-28T01:24:30.242Z,4.98
2018-09-28T01:25:01.392Z,4.98
2018-09-28T01:25:32.527Z,4.98
2018-09-28T01:26:03.638Z,4.98
2018-09-28T01:26:34.780Z,4.99
2018-09-28T01:27:05.892Z,4.99
2018-09-28T01:27:36.992Z,5.01
2018-09-28T01:28:08.118Z,4.99
2018-09-28T01:28:39.232Z,5.00
2018-09-28T01:29:10.356Z,5.02
2018-09-28T01:29:41.475Z,5.04
2018-09-28T01:30:12.619Z,5.06
2018-09-28T01:30:43.773Z,5.07
2018-09-28T01:31:14.888Z,5.08
2018-09-28T01:31:46.012Z,5.08
2018-09-28T01:32:17.126Z,5.09
2018-09-28T01:32:48.239Z,5.08
2018-09-28T01:33:19.383Z,5.11
2018-09-28T01:33:50.489Z,5.12
2018-09-28T01:34:21.590Z,5.15
2018-09-28T01:34:52.694Z,5.18
2018-09-28T01:35:23.817Z,5.21
2018-09-28T01:35:54.962Z,5.23
2018-09-28T01:36:26.107Z,5.24
2018-09-28T01:36:57.214Z,5.25
2018-09-28T01:37:28.350Z,5.30
2018-09-28T01:37:59.481Z,5.33
2018-09-28T01:38:30.671Z,5.33
2018-09-28T01:39:01.779Z,5.34
2018-09-28T01:39:32.925Z,5.35
2018-09-28T01:40:04.031Z,5.37
2018-09-28T01:40:35.142Z,5.38
2018-09-28T01:41:06.235Z,5.40
2018-09-28T01:41:37.349Z,5.43
2018-09-28T01:42:08.458Z,5.43
2018-09-28T01:42:39.609Z,5.46
2018-09-28T01:43:10.811Z,5.47
2018-09-28T01:43:41.954Z,5.47
2018-09-28T01:44:13.079Z,5.51
2018-09-28T01:44:44.210Z,5.52
2018-09-28T01:45:15.309Z,5.55
2018-09-28T01:45:46.438Z,5.57
2018-09-28T01:46:17.530Z,5.59
2018-09-28T01:46:48.634Z,5.60
2018-09-28T01:47:19.741Z,5.61
2018-09-28T01:47:50.861Z,5.61
2018-09-28T01:48:22.027Z,5.60
2018-09-28T01:48:53.149Z,5.63
2018-09-28T01:49:24.251Z,5.64
2018-09-28T01:49:55.361Z,5.66
2018-09-28T01:50:26.465Z,5.68
2018-09-28T01:50:57.569Z,5.67
2018-09-28T01:51:28.701Z,5.69
2018-09-28T01:51:59.805Z,5.69
2018-09-28T01:52:30.908Z,5.70
2018-09-28T01:53:02.049Z,5.69
2018-09-28T01:53:33.145Z,5.69
2018-09-28T01:54:04.250Z,5.70
2018-09-28T01:54:35.348Z,5.70
2018-09-28T01:55:06.449Z,5.70
2018-09-28T01:55:37.549Z,5.70
2018-09-28T01:56:08.685Z,5.70
2018-09-28T01:56:39.818Z,5.71
2018-09-28T01:57:10.917Z,5.72
2018-09-28T01:57:42.057Z,5.74
2018-09-28T01:58:13.212Z,5.74
2018-09-28T01:58:44.343Z,5.75
2018-09-28T01:59:15.457Z,5.75
2018-09-28T01:59:46.551Z,5.75
2018-09-28T02:00:17.645Z,5.76
2018-09-28T02:00:48.749Z,5.76
2018-09-28T02:01:19.865Z,5.76
2018-09-28T02:01:51.027Z,5.78
2018-09-28T02:02:22.193Z,5.79
2018-09-28T02:02:53.346Z,5.79
2018-09-28T02:03:24.832Z,5.79
2018-09-28T02:03:55.974Z,5.80
2018-09-28T02:04:27.275Z,5.81
2018-09-28T02:04:58.468Z,5.81
2018-09-28T02:05:29.607Z,5.80
2018-09-28T02:06:01.068Z,5.80
2018-09-28T02:06:32.193Z,5.80
2018-09-28T02:07:03.354Z,5.79
2018-09-28T02:07:34.460Z,5.80
2018-09-28T02:08:05.906Z,5.79
2018-09-28T02:08:37.060Z,5.82
2018-09-28T02:09:09.148Z,5.82
2018-09-28T02:09:41.434Z,5.83
2018-09-28T02:10:12.587Z,5.83
2018-09-28T02:10:44.365Z,5.81
2018-09-28T02:11:15.811Z,5.81
2018-09-28T02:11:46.960Z,5.80
2018-09-28T02:12:18.696Z,5.79
2018-09-28T02:12:49.925Z,5.80
2018-09-28T02:13:21.410Z,5.79
2018-09-28T02:13:53.582Z,5.76
2018-09-28T02:14:24.706Z,5.77
2018-09-28T02:14:55.794Z,5.75
2018-09-28T02:15:26.911Z,5.73
2018-09-28T02:15:58.314Z,5.73
2018-09-28T02:16:29.422Z,5.72
2018-09-28T02:17:00.526Z,5.73
2018-09-28T02:17:31.671Z,5.73
2018-09-28T02:18:02.766Z,5.72
2018-09-28T02:18:33.865Z,5.73
2018-09-28T02:19:05.007Z,5.72
2018-09-28T02:19:36.111Z,5.71
2018-09-28T02:20:07.210Z,5.68
2018-09-28T02:20:38.330Z,5.67
2018-09-28T02:21:09.489Z,5.65
2018-09-28T02:21:40.583Z,5.63
2018-09-28T02:22:11.693Z,5.62
2018-09-28T02:22:42.803Z,5.63
2018-09-28T02:23:13.905Z,5.60
2018-09-28T02:23:45.017Z,5.59
2018-09-28T02:24:16.109Z,5.58
2018-09-28T02:24:47.218Z,5.60
2018-09-28T02:25:18.318Z,5.59
2018-09-28T02:25:49.489Z,5.58
2018-09-28T02:26:20.651Z,5.56
2018-09-28T02:26:51.749Z,5.56
2018-09-28T02:27:22.873Z,5.56
2018-09-28T02:27:53.994Z,5.56
2018-09-28T02:28:25.103Z,5.58
2018-09-28T02:28:56.239Z,5.58
2018-09-28T02:29:27.352Z,5.58
2018-09-28T02:29:58.471Z,5.60
2018-09-28T02:30:29.572Z,5.60
2018-09-28T02:31:00.733Z,5.58
2018-09-28T02:31:31.835Z,5.58
2018-09-28T02:32:02.977Z,5.57
2018-09-28T02:32:34.099Z,5.58
2018-09-28T02:33:05.247Z,5.56
2018-09-28T02:33:36.366Z,5.55
2018-09-28T02:34:07.475Z,5.56
2018-09-28T02:34:38.588Z,5.55
2018-09-28T02:35:09.699Z,5.51
2018-09-28T02:35:40.801Z,5.50
2018-09-28T02:36:11.953Z,5.49
2018-09-28T02:36:43.072Z,5.48
2018-09-28T02:37:14.171Z,5.47
2018-09-28T02:37:45.285Z,5.48
2018-09-28T02:38:16.385Z,5.50
2018-09-28T02:38:47.537Z,5.53
2018-09-28T02:39:18.646Z,5.53
2018-09-28T02:39:49.806Z,5.54
2018-09-28T02:40:20.921Z,5.54
2018-09-28T02:40:52.077Z,5.52
2018-09-28T02:41:23.247Z,5.53
2018-09-28T02:41:54.406Z,5.54
2018-09-28T02:42:25.501Z,5.53
2018-09-28T02:42:56.637Z,5.53
2018-09-28T02:43:27.761Z,5.52
2018-09-28T02:43:58.877Z,5.52
2018-09-28T02:44:30.024Z,5.51
2018-09-28T02:45:01.123Z,5.52
2018-09-28T02:45:32.241Z,5.51
2018-09-28T02:46:03.382Z,5.52
2018-09-28T02:46:34.626Z,5.51
2018-09-28T02:47:05.756Z,5.49
2018-09-28T02:47:36.883Z,5.50
2018-09-28T02:48:08.003Z,5.51
2018-09-28T02:48:39.112Z,5.50
2018-09-28T02:49:10.307Z,5.50
2018-09-28T02:49:41.411Z,5.52
2018-09-28T02:50:12.521Z,5.53
2018-09-28T02:50:43.673Z,5.51
2018-09-28T02:51:14.775Z,5.52
2018-09-28T02:51:45.925Z,5.51
2018-09-28T02:52:17.026Z,5.55
2018-09-28T02:52:48.162Z,5.58
2018-09-28T02:53:19.270Z,5.57
2018-09-28T02:53:50.402Z,5.55
2018-09-28T02:54:21.506Z,5.52
2018-09-28T02:54:52.629Z,5.52
2018-09-28T02:55:23.756Z,5.49
2018-09-28T02:55:54.860Z,5.49
2018-09-28T02:56:25.974Z,5.49
2018-09-28T02:56:57.139Z,5.50
2018-09-28T02:57:28.269Z,5.51
2018-09-28T02:57:59.376Z,5.49
2018-09-28T02:58:30.622Z,5.49
2018-09-28T02:59:01.761Z,5.46
2018-09-28T02:59:32.887Z,5.45
2018-09-28T03:00:03.999Z,5.43
2018-09-28T03:00:35.101Z,5.40
2018-09-28T03:01:06.193Z,5.38
2018-09-28T03:01:37.352Z,5.36
2018-09-28T03:02:08.489Z,5.34
2018-09-28T03:02:39.617Z,5.32
2018-09-28T03:03:10.748Z,5.29
2018-09-28T03:03:41.890Z,5.30
2018-09-28T03:04:12.991Z,5.28
2018-09-28T03:04:44.111Z,5.28
2018-09-28T03:05:15.234Z,5.26
2018-09-28T03:05:46.340Z,5.23
2018-09-28T03:06:17.488Z,5.20
2018-09-28T03:06:48.622Z,5.16
2018-09-28T03:07:19.728Z,5.10
2018-09-28T03:07:50.822Z,5.06
2018-09-28T03:08:21.928Z,5.09
2018-09-28T03:08:53.058Z,5.07
2018-09-28T03:09:24.145Z,5.07
2018-09-28T03:09:55.265Z,5.06
2018-09-28T03:10:26.360Z,5.06
2018-09-28T03:10:57.460Z,5.07
2018-09-28T03:11:28.570Z,5.07
2018-09-28T03:11:59.684Z,5.07
2018-09-28T03:12:30.820Z,5.06
2018-09-28T03:13:01.964Z,5.08
2018-09-28T03:13:33.093Z,5.09
2018-09-28T03:14:04.256Z,5.07
2018-09-28T03:14:35.395Z,5.08
2018-09-28T03:15:06.512Z,5.07
2018-09-28T03:15:37.620Z,5.07
2018-09-28T03:16:08.730Z,5.07
2018-09-28T03:16:39.822Z,5.08
2018-09-28T03:17:10.925Z,5.05
2018-09-28T03:17:42.030Z,5.04
2018-09-28T03:18:13.190Z,5.02
2018-09-28T03:18:44.308Z,5.02
2018-09-28T03:19:15.470Z,5.00
2018-09-28T03:19:46.580Z,5.01
2018-09-28T03:20:17.705Z,5.00
2018-09-28T03:20:48.810Z,4.99
2018-09-28T03:21:19.923Z,4.99
2018-09-28T03:21:51.045Z,4.98
2018-09-28T03:22:22.184Z,4.98
2018-09-28T03:22:53.324Z,4.96
2018-09-28T03:23:24.440Z,4.96
2018-09-28T03:23:55.606Z,4.97
2018-09-28T03:24:26.707Z,4.96
2018-09-28T03:24:57.838Z,4.95
2018-09-28T03:25:28.995Z,4.92
2018-09-28T03:26:00.141Z,4.91
2018-09-28T03:26:31.248Z,4.93
2018-09-28T03:27:02.392Z,4.92
2018-09-28T03:27:33.525Z,4.92
2018-09-28T03:28:04.627Z,4.90
2018-09-28T03:28:35.739Z,4.89
2018-09-28T03:29:06.901Z,4.87
2018-09-28T03:29:38.024Z,4.87
2018-09-28T03:30:09.157Z,4.85
2018-09-28T03:30:40.294Z,4.86
2018-09-28T03:31:11.460Z,4.87
2018-09-28T03:31:42.610Z,4.87
2018-09-28T03:32:13.768Z,4.85
2018-09-28T03:32:44.921Z,4.86
2018-09-28T03:33:16.065Z,4.87
2018-09-28T03:33:47.174Z,4.85
2018-09-28T03:34:18.334Z,4.83
2018-09-28T03:34:49.440Z,4.83
2018-09-28T03:35:20.541Z,4.81
2018-09-28T03:35:51.697Z,4.81
2018-09-28T03:36:22.793Z,4.81
2018-09-28T03:36:53.908Z,4.81
2018-09-28T03:37:25.005Z,4.80
2018-09-28T03:37:56.109Z,4.79
2018-09-28T03:38:27.235Z,4.78
2018-09-28T03:38:58.436Z,4.75
2018-09-28T03:39:29.546Z,4.76
2018-09-28T03:40:00.646Z,4.76
2018-09-28T03:40:31.804Z,4.76
2018-09-28T03:41:02.885Z,4.76
2018-09-28T03:41:33.985Z,4.77
2018-09-28T03:42:05.105Z,4.78
2018-09-28T03:42:36.207Z,4.78
2018-09-28T03:43:07.306Z,4.77
2018-09-28T03:43:38.404Z,4.77
2018-09-28T03:44:09.590Z,4.76
2018-09-28T03:44:40.691Z,4.74
2018-09-28T03:45:11.792Z,4.74
2018-09-28T03:45:42.896Z,4.73
2018-09-28T03:46:14.049Z,4.72
2018-09-28T03:46:45.191Z,4.71
2018-09-28T03:47:16.341Z,4.70
2018-09-28T03:47:47.467Z,4.68
2018-09-28T03:48:18.580Z,4.68
2018-09-28T03:48:49.704Z,4.67
2018-09-28T03:49:20.841Z,4.67
2018-09-28T03:49:51.973Z,4.67
2018-09-28T03:50:23.083Z,4.69
2018-09-28T03:50:54.202Z,4.67
2018-09-28T03:51:25.422Z,4.67
2018-09-28T03:51:56.491Z,4.67
2018-09-28T03:52:27.631Z,4.67
2018-09-28T03:52:58.781Z,4.68
2018-09-28T03:53:29.893Z,4.68
2018-09-28T03:54:01.027Z,4.69
2018-09-28T03:54:32.126Z,4.68
2018-09-28T03:55:03.242Z,4.65
2018-09-28T03:55:34.362Z,4.65
2018-09-28T03:56:05.521Z,4.65
2018-09-28T03:56:36.683Z,4.65
2018-09-28T03:57:07.794Z,4.68
2018-09-28T03:57:38.887Z,4.68
2018-09-28T03:58:10.005Z,4.68
2018-09-28T03:58:41.114Z,4.69
2018-09-28T03:59:12.214Z,4.69
2018-09-28T03:59:43.309Z,4.69
2018-09-28T04:00:14.435Z,4.69
2018-09-28T04:00:45.599Z,4.69
2018-09-28T04:01:16.695Z,4.70
2018-09-28T04:01:47.825Z,4.72
2018-09-28T04:02:18.935Z,4.72
2018-09-28T04:02:50.060Z,4.71
2018-09-28T04:03:21.191Z,4.71
2018-09-28T04:03:52.305Z,4.71
2018-09-28T04:04:23.435Z,4.72
2018-09-28T04:04:54.541Z,4.72
2018-09-28T04:05:25.736Z,4.72
2018-09-28T04:05:56.853Z,4.73
2018-09-28T04:06:28.000Z,4.43
2018-09-28T04:06:59.110Z,4.72
2018-09-28T04:07:30.228Z,4.72
2018-09-28T04:08:01.332Z,4.74
2018-09-28T04:08:32.461Z,4.75
2018-09-28T04:09:03.576Z,4.74
2018-09-28T04:09:34.714Z,4.74
2018-09-28T04:10:05.864Z,4.76
2018-09-28T04:10:37.007Z,4.77
2018-09-28T04:11:08.135Z,4.78
2018-09-28T04:11:39.254Z,4.77
2018-09-28T04:12:10.400Z,4.75
2018-09-28T04:12:41.513Z,4.74
2018-09-28T04:13:12.645Z,4.75
2018-09-28T04:13:43.805Z,4.74
2018-09-28T04:14:14.934Z,4.75
2018-09-28T04:14:46.049Z,4.76
2018-09-28T04:15:17.278Z,4.76
2018-09-28T04:15:48.421Z,4.76
2018-09-28T04:16:19.536Z,4.77
2018-09-28T04:16:50.634Z,4.77
2018-09-28T04:17:21.748Z,4.79
2018-09-28T04:17:52.877Z,4.79
2018-09-28T04:18:24.011Z,4.80
2018-09-28T04:18:55.123Z,4.83
2018-09-28T04:19:26.256Z,4.82
2018-09-28T04:19:57.396Z,4.84
2018-09-28T04:20:28.532Z,4.84
2018-09-28T04:20:59.716Z,4.84
2018-09-28T04:21:30.814Z,4.84
2018-09-28T04:22:02.033Z,4.86
2018-09-28T04:22:33.115Z,4.88
2018-09-28T04:23:04.233Z,4.87
2018-09-28T04:23:35.346Z,4.90
2018-09-28T04:24:06.501Z,4.91
2018-09-28T04:24:37.620Z,4.90
2018-09-28T04:25:08.735Z,4.93
2018-09-28T04:25:39.856Z,4.99
2018-09-28T04:26:11.592Z,5.07
2018-09-28T04:26:42.706Z,5.17
2018-09-28T04:27:13.821Z,5.27
2018-09-28T04:27:44.937Z,5.37
2018-09-28T04:28:16.097Z,5.49
2018-09-28T04:28:47.274Z,5.63
2018-09-28T04:29:18.396Z,5.78
2018-09-28T04:29:49.521Z,5.95
2018-09-28T04:30:20.625Z,6.11
2018-09-28T04:30:51.746Z,6.26
2018-09-28T04:31:22.877Z,6.36
2018-09-28T04:31:53.975Z,6.46
2018-09-28T04:32:25.081Z,6.57
2018-09-28T04:32:56.260Z,6.69
2018-09-28T04:33:27.366Z,6.85
2018-09-28T04:33:58.522Z,6.96
2018-09-28T04:34:29.682Z,7.08
2018-09-28T04:35:00.812Z,7.21
2018-09-28T04:35:31.935Z,7.35
2018-09-28T04:36:03.117Z,7.46
2018-09-28T04:36:34.220Z,7.56
2018-09-28T04:37:05.346Z,7.63
2018-09-28T04:37:36.493Z,7.69
2018-09-28T04:38:07.597Z,7.71
2018-09-28T04:38:38.713Z,7.70
2018-09-28T04:39:09.819Z,7.63
2018-09-28T04:39:41.037Z,7.61
2018-09-28T04:40:12.136Z,7.61
2018-09-28T04:40:43.257Z,7.60
2018-09-28T04:41:14.367Z,7.58
2018-09-28T04:41:45.465Z,7.58
2018-09-28T04:42:16.553Z,7.58
2018-09-28T04:42:47.713Z,7.53
2018-09-28T04:43:18.829Z,7.49
2018-09-28T04:43:49.927Z,7.44
2018-09-28T04:44:21.026Z,7.35
2018-09-28T04:44:52.169Z,7.23
2018-09-28T04:45:23.284Z,7.11
2018-09-28T04:45:54.431Z,6.97
2018-09-28T04:46:25.541Z,6.84
2018-09-28T04:46:56.673Z,6.75
2018-09-28T04:47:27.778Z,6.63
2018-09-28T04:47:58.933Z,6.55
2018-09-28T04:48:30.072Z,6.49
2018-09-28T04:49:01.195Z,6.43
2018-09-28T04:49:32.296Z,6.37
2018-09-28T04:50:03.448Z,6.35
2018-09-28T04:50:34.578Z,6.34
2018-09-28T04:51:05.730Z,6.33
2018-09-28T04:51:36.840Z,6.34
2018-09-28T04:52:07.971Z,6.35
2018-09-28T04:52:39.080Z,6.36
2018-09-28T04:53:10.228Z,6.35
2018-09-28T04:53:41.361Z,6.38
2018-09-28T04:54:12.457Z,6.43
2018-09-28T04:54:43.550Z,6.49
2018-09-28T04:55:14.711Z,6.53
2018-09-28T04:55:45.864Z,6.60
2018-09-28T04:56:16.961Z,6.69
2018-09-28T04:56:48.075Z,6.77
2018-09-28T04:57:19.190Z,6.86
2018-09-28T04:57:50.349Z,6.97
2018-09-28T04:58:21.450Z,7.09
2018-09-28T04:58:52.587Z,7.24
2018-09-28T04:59:23.719Z,7.36
2018-09-28T04:59:54.845Z,7.44
2018-09-28T05:00:25.962Z,7.51
2018-09-28T05:00:57.098Z,7.58
2018-09-28T05:01:28.192Z,7.61
2018-09-28T05:01:59.311Z,7.64
2018-09-28T05:02:30.406Z,7.64
2018-09-28T05:03:01.521Z,7.66
2018-09-28T05:03:32.854Z,7.71
2018-09-28T05:04:04.006Z,7.71
2018-09-28T05:04:35.151Z,7.72
2018-09-28T05:05:06.253Z,7.70
2018-09-28T05:05:37.354Z,7.71
2018-09-28T05:06:08.450Z,7.71
2018-09-28T05:06:39.580Z,7.68
2018-09-28T05:07:10.727Z,7.70
2018-09-28T05:07:41.828Z,7.72
2018-09-28T05:08:12.938Z,7.74
2018-09-28T05:08:44.034Z,7.77
2018-09-28T05:09:15.139Z,7.81
2018-09-28T05:09:46.247Z,7.82
2018-09-28T05:10:17.362Z,7.89
2018-09-28T05:10:48.491Z,7.92
2018-09-28T05:11:19.605Z,7.95
2018-09-28T05:11:50.710Z,8.00
2018-09-28T05:12:21.873Z,8.08
2018-09-28T05:12:52.997Z,8.12
2018-09-28T05:13:24.137Z,8.14
2018-09-28T05:13:55.241Z,8.15
2018-09-28T05:14:26.347Z,8.16
2018-09-28T05:14:57.464Z,8.21
2018-09-28T05:15:28.590Z,8.22
2018-09-28T05:15:59.695Z,8.24
2018-09-28T05:16:30.790Z,8.25
2018-09-28T05:17:01.949Z,8.29
2018-09-28T05:17:33.106Z,8.31
2018-09-28T05:18:04.203Z,8.28
2018-09-28T05:18:35.305Z,8.29
2018-09-28T05:19:06.402Z,8.35
2018-09-28T05:19:37.624Z,8.34
2018-09-28T05:20:08.676Z,8.32
2018-09-28T05:20:39.766Z,8.30
2018-09-28T05:21:10.863Z,8.29
2018-09-28T05:21:42.034Z,8.25
2018-09-28T05:22:13.143Z,8.23
2018-09-28T05:22:44.245Z,8.20
2018-09-28T05:23:15.372Z,8.17
2018-09-28T05:23:46.462Z,8.18
2018-09-28T05:24:17.577Z,8.17
2018-09-28T05:24:48.685Z,8.15
2018-09-28T05:25:19.859Z,8.14
2018-09-28T05:25:50.979Z,8.12
2018-09-28T05:26:22.099Z,8.09
2018-09-28T05:26:53.241Z,8.09
2018-09-28T05:27:24.350Z,8.07
2018-09-28T05:27:55.452Z,8.07
2018-09-28T05:28:26.581Z,8.12
2018-09-28T05:28:57.703Z,8.12
2018-09-28T05:29:28.848Z,8.14
2018-09-28T05:29:59.978Z,8.20
2018-09-28T05:30:31.095Z,8.24
2018-09-28T05:31:02.300Z,8.32
2018-09-28T05:31:33.378Z,8.38
2018-09-28T05:32:04.579Z,8.36
2018-09-28T05:32:35.794Z,8.32
2018-09-28T05:33:06.963Z,8.39
2018-09-28T05:33:37.958Z,8.37
2018-09-28T05:34:09.049Z,8.41
2018-09-28T05:34:40.146Z,8.40
2018-09-28T05:35:11.258Z,8.42
2018-09-28T05:35:42.393Z,8.43
2018-09-28T05:36:13.542Z,8.42
2018-09-28T05:36:44.665Z,8.45
2018-09-28T05:37:15.887Z,8.36
2018-09-28T05:37:46.912Z,8.28
2018-09-28T05:38:18.070Z,8.31
2018-09-28T05:38:49.180Z,8.36
2018-09-28T05:39:20.297Z,8.33
2018-09-28T05:39:51.432Z,8.25
2018-09-28T05:40:22.550Z,8.19
2018-09-28T05:40:53.699Z,8.16
2018-09-28T05:41:24.830Z,8.20
2018-09-28T05:41:55.981Z,8.28
2018-09-28T05:42:27.081Z,8.38
2018-09-28T05:42:58.218Z,8.44
2018-09-28T05:43:29.337Z,8.42
2018-09-28T05:44:00.469Z,8.38
2018-09-28T05:44:31.592Z,8.38
2018-09-28T05:45:02.744Z,8.38
2018-09-28T05:45:33.870Z,8.45
2018-09-28T05:46:04.986Z,8.46
2018-09-28T05:46:36.168Z,8.53
2018-09-28T05:47:07.257Z,8.60
2018-09-28T05:47:38.422Z,8.72
2018-09-28T05:48:09.522Z,8.80
2018-09-28T05:48:40.636Z,8.92
2018-09-28T05:49:11.754Z,9.07
2018-09-28T05:49:42.869Z,9.14
2018-09-28T05:50:13.965Z,9.23
2018-09-28T05:50:45.084Z,9.28
2018-09-28T05:51:16.231Z,9.33
2018-09-28T05:51:47.351Z,9.41
2018-09-28T05:52:18.478Z,9.38
2018-09-28T05:52:49.668Z,9.28
2018-09-28T05:53:20.811Z,9.20
2018-09-28T05:53:51.935Z,9.20
2018-09-28T05:54:23.055Z,9.16
2018-09-28T05:54:54.177Z,9.20
2018-09-28T05:55:25.268Z,9.22
2018-09-28T05:55:56.393Z,7.48
2018-09-28T05:56:27.567Z,9.31
2018-09-28T05:56:58.669Z,9.38
2018-09-28T05:57:29.889Z,9.48
2018-09-28T05:58:00.983Z,9.57
2018-09-28T05:58:32.145Z,9.59
2018-09-28T05:59:03.221Z,9.64
2018-09-28T05:59:34.317Z,9.70
2018-09-28T06:00:05.451Z,9.76
2018-09-28T06:00:36.677Z,9.86
2018-09-28T06:01:07.794Z,9.97
2018-09-28T06:01:40.130Z,10.07
2018-09-28T06:02:11.301Z,10.12
2018-09-28T06:02:42.425Z,10.21
2018-09-28T06:03:13.591Z,7.44
2018-09-28T06:03:44.721Z,10.41
2018-09-28T06:04:15.845Z,10.49
2018-09-28T06:04:46.943Z,10.46
2018-09-28T06:05:18.151Z,10.48
2018-09-28T06:05:49.287Z,10.56
2018-09-28T06:06:20.445Z,10.59
2018-09-28T06:06:51.568Z,10.55
2018-09-28T06:07:22.674Z,10.51
2018-09-28T06:07:53.790Z,10.55
2018-09-28T06:08:24.998Z,10.65
2018-09-28T06:08:56.182Z,10.68
2018-09-28T06:09:27.349Z,10.65
2018-09-28T06:09:58.562Z,10.70
2018-09-28T06:10:30.575Z,10.58
2018-09-28T06:11:01.811Z,10.50
2018-09-28T06:11:33.094Z,10.54
2018-09-28T06:12:04.299Z,10.64
2018-09-28T06:12:35.480Z,10.75
2018-09-28T06:13:06.612Z,10.80
2018-09-28T06:13:37.767Z,10.84
2018-09-28T06:14:08.914Z,10.89
2018-09-28T06:14:40.031Z,10.88
2018-09-28T06:15:11.156Z,10.83
2018-09-28T06:15:42.291Z,10.82
2018-09-28T06:16:13.433Z,10.85
2018-09-28T06:16:44.605Z,10.82
2018-09-28T06:17:15.782Z,10.75
2018-09-28T06:17:46.958Z,10.69
2018-09-28T06:18:18.147Z,10.75
2018-09-28T06:18:49.346Z,10.77
2018-09-28T06:19:20.423Z,10.81
2018-09-28T06:19:51.569Z,10.79
2018-09-28T06:20:22.822Z,10.76
2018-09-28T06:20:53.972Z,10.75
2018-09-28T06:21:25.104Z,10.73
2018-09-28T06:21:56.252Z,10.75
2018-09-28T06:22:27.418Z,10.74
2018-09-28T06:22:58.788Z,10.74
2018-09-28T06:23:29.996Z,10.72
2018-09-28T06:24:01.145Z,10.70
2018-09-28T06:24:32.290Z,10.72
2018-09-28T06:25:03.458Z,10.75
2018-09-28T06:25:34.632Z,10.76
2018-09-28T06:26:05.913Z,10.75
2018-09-28T06:26:37.049Z,10.80
2018-09-28T06:27:08.196Z,10.83
2018-09-28T06:27:39.391Z,10.84
2018-09-28T06:28:10.507Z,10.85
2018-09-28T06:28:41.663Z,10.56
2018-09-28T06:29:12.783Z,10.86
2018-09-28T06:29:44.146Z,10.91
2018-09-28T06:30:15.282Z,10.96
2018-09-28T06:30:47.584Z,11.01
2018-09-28T06:31:18.740Z,11.00
2018-09-28T06:31:49.885Z,11.02
2018-09-28T06:32:21.042Z,11.05
2018-09-28T06:32:52.164Z,11.06
2018-09-28T06:33:23.290Z,11.12
2018-09-28T06:33:54.402Z,11.11
2018-09-28T06:34:25.583Z,11.21
2018-09-28T06:34:56.720Z,11.31
2018-09-28T06:35:27.962Z,11.30
2018-09-28T06:35:59.158Z,11.27
2018-09-28T06:36:30.282Z,11.24
2018-09-28T06:37:01.418Z,11.22
2018-09-28T06:37:32.751Z,11.25
2018-09-28T06:38:03.971Z,11.35
2018-09-28T06:38:35.216Z,11.44
2018-09-28T06:39:06.370Z,11.49
2018-09-28T06:39:37.552Z,11.52
2018-09-28T06:40:08.787Z,11.51
2018-09-28T06:40:39.963Z,11.48
2018-09-28T06:41:11.083Z,11.46
2018-09-28T06:41:42.261Z,11.44
2018-09-28T06:42:13.380Z,11.42
2018-09-28T06:42:44.526Z,11.43
2018-09-28T06:43:15.685Z,11.32
2018-09-28T06:43:46.801Z,10.97
2018-09-28T06:44:17.916Z,11.18
2018-09-28T06:44:49.170Z,11.19
2018-09-28T06:45:20.175Z,11.18
2018-09-28T06:45:51.275Z,11.14
2018-09-28T06:46:22.396Z,11.16
2018-09-28T06:46:53.534Z,11.17
2018-09-28T06:47:24.685Z,11.21
2018-09-28T06:47:55.848Z,11.28
2018-09-28T06:48:27.002Z,11.30
2018-09-28T06:48:58.137Z,11.32
2018-09-28T06:49:29.261Z,11.32
2018-09-28T06:50:00.386Z,11.35
2018-09-28T06:50:31.508Z,11.45
2018-09-28T06:51:02.615Z,11.50
2018-09-28T06:51:33.755Z,11.52
2018-09-28T06:52:04.859Z,11.52
2018-09-28T06:52:35.964Z,11.54
2018-09-28T06:53:07.076Z,11.56